PGUM 190420Z 1904/2006 09012KT P6SM VCSH SCT035
From batch tds/tafs/production/2023/3/19/h04_m36_tafs.cache.xml
Issued (12 months ago)
Forecasts

---
- wx_string
- VCSH

---
- fcst_time_to
- '2023-03-20T06:00:00Z'

---
- sky_condition
- - sky_cover: SCT
    cloud_base_ft_agl: '3500'

---
- wind_speed_kt
- '12'

---
- fcst_time_from
- '2023-03-19T04:00:00Z'

---
- wind_dir_degrees
- '90'

---
- visibility_statute_mi
- '6.21'

talk